createdAt,value
2018-10-19T00:00:24.735Z,69.94
2018-10-19T00:02:54.458Z,69.78
2018-10-19T00:05:23.467Z,70.62
2018-10-19T00:07:52.519Z,70.52
2018-10-19T00:10:21.555Z,70.71
2018-10-19T00:12:50.673Z,70.29
2018-10-19T00:15:19.919Z,70.19
2018-10-19T00:17:49.058Z,69.99
2018-10-19T00:20:18.135Z,70.21
2018-10-19T00:22:47.196Z,70.39
2018-10-19T00:25:16.257Z,70.96
2018-10-19T00:27:45.333Z,69.86
2018-10-19T00:30:15.633Z,70.98
2018-10-19T00:32:46.604Z,70.23
2018-10-19T00:35:15.748Z,70.11
2018-10-19T00:37:44.907Z,70.90
2018-10-19T00:40:14.054Z,71.55
2018-10-19T00:42:44.685Z,70.89
2018-10-19T00:45:13.799Z,69.58
2018-10-19T00:47:42.896Z,71.75
2018-10-19T00:50:12.106Z,71.15
2018-10-19T00:52:42.286Z,71.35
2018-10-19T00:55:11.385Z,71.37
2018-10-19T00:57:41.686Z,72.11
2018-10-19T01:00:10.969Z,71.43
2018-10-19T01:02:42.135Z,70.47
2018-10-19T01:05:11.360Z,70.62
2018-10-19T01:07:40.384Z,71.48
2018-10-19T01:10:11.597Z,72.03
2018-10-19T01:12:40.675Z,72.58
2018-10-19T01:15:09.864Z,71.47
2018-10-19T01:17:38.821Z,71.43
2018-10-19T01:20:07.978Z,71.23
2018-10-19T01:22:38.991Z,70.30
2018-10-19T01:25:08.058Z,71.62
2018-10-19T01:27:37.106Z,71.64
2018-10-19T01:30:06.854Z,71.31
2018-10-19T01:32:36.458Z,71.26
2018-10-19T01:35:06.408Z,71.54
2018-10-19T01:37:36.403Z,72.39
2018-10-19T01:40:07.131Z,72.44
2018-10-19T01:42:38.828Z,71.59
2018-10-19T01:45:12.479Z,71.37
2018-10-19T01:47:43.806Z,71.72
2018-10-19T01:50:12.885Z,72.28
2018-10-19T01:55:21.083Z,71.45
2018-10-19T01:57:52.589Z,71.42
2018-10-19T02:00:22.678Z,72.33
2018-10-19T02:02:51.767Z,72.28
2018-10-19T02:05:21.127Z,70.84
2018-10-19T02:11:11.409Z,72.65
2018-10-19T02:13:41.691Z,71.87
2018-10-19T02:16:17.867Z,71.08
2018-10-19T02:19:29.325Z,72.11
2018-10-19T02:22:02.182Z,73.46
2018-10-19T02:25:10.428Z,71.55
2018-10-19T02:27:39.510Z,71.86
2018-10-19T02:30:08.380Z,72.53
2018-10-19T02:32:38.498Z,72.68
2018-10-19T02:35:10.089Z,72.67
2018-10-19T02:37:39.295Z,73.40
2018-10-19T02:40:09.129Z,72.39
2018-10-19T02:42:50.761Z,72.89
2018-10-19T02:48:38.620Z,72.54
2018-10-19T02:51:15.334Z,72.10
2018-10-19T02:53:46.192Z,73.49
2018-10-19T02:56:15.278Z,72.41
2018-10-19T02:58:44.625Z,72.18
2018-10-19T03:01:27.881Z,72.68
2018-10-19T03:03:58.091Z,72.42
2018-10-19T03:06:27.181Z,72.84
2018-10-19T03:08:56.306Z,71.95
2018-10-19T03:11:25.287Z,72.73
2018-10-19T03:13:54.340Z,71.54
2018-10-19T03:16:23.385Z,71.92
2018-10-19T03:18:52.423Z,73.90
2018-10-19T03:21:21.492Z,72.94
2018-10-19T03:23:50.587Z,73.34
2018-10-19T03:26:19.729Z,72.60
2018-10-19T03:28:48.804Z,71.75
2018-10-19T03:31:18.032Z,71.79
2018-10-19T03:33:47.004Z,72.13
2018-10-19T03:36:17.271Z,73.26
2018-10-19T03:38:47.213Z,72.56
2018-10-19T03:41:16.322Z,72.39
2018-10-19T03:43:45.592Z,72.61
2018-10-19T03:46:14.653Z,73.98
2018-10-19T03:48:43.740Z,72.76
2018-10-19T03:51:12.931Z,71.88
2018-10-19T03:53:41.880Z,74.14
2018-10-19T03:56:10.976Z,73.25
2018-10-19T03:58:40.047Z,72.45
2018-10-19T04:01:09.271Z,72.72
2018-10-19T04:03:38.353Z,72.80
2018-10-19T04:06:07.426Z,72.82
2018-10-19T04:08:36.486Z,74.79
2018-10-19T04:11:05.596Z,72.14
2018-10-19T04:13:34.553Z,72.63
2018-10-19T04:16:03.710Z,73.95
2018-10-19T04:18:34.197Z,72.99
2018-10-19T04:21:03.453Z,73.40
2018-10-19T04:23:32.444Z,72.98
2018-10-19T04:26:01.598Z,73.41
2018-10-19T04:28:31.727Z,73.63
2018-10-19T04:31:00.846Z,72.91
2018-10-19T04:33:29.963Z,73.99
2018-10-19T04:35:59.036Z,74.02
2018-10-19T04:38:28.086Z,73.18
2018-10-19T04:40:57.134Z,73.26
2018-10-19T04:43:26.175Z,74.15
2018-10-19T04:45:55.227Z,73.29
2018-10-19T04:48:24.243Z,73.55
2018-10-19T04:50:53.332Z,73.85
2018-10-19T04:53:22.341Z,74.05
2018-10-19T04:55:51.450Z,73.97
2018-10-19T04:58:20.486Z,74.35
2018-10-19T05:00:49.592Z,76.68
2018-10-19T05:03:18.710Z,75.45
2018-10-19T05:05:48.805Z,73.86
2018-10-19T05:08:17.988Z,74.14
2018-10-19T05:10:46.958Z,73.30
2018-10-19T05:15:55.901Z,73.33
2018-10-19T05:18:24.970Z,73.72
2018-10-19T05:20:54.127Z,73.70
2018-10-19T05:23:24.144Z,73.91
2018-10-19T05:25:53.210Z,74.66
2018-10-19T05:28:22.315Z,74.24
2018-10-19T05:30:51.387Z,73.58
2018-10-19T05:33:20.644Z,74.09
2018-10-19T05:35:49.675Z,73.91
2018-10-19T05:38:18.728Z,74.37
2018-10-19T05:40:47.855Z,75.07
2018-10-19T05:43:17.918Z,73.78
2018-10-19T05:45:47.300Z,73.31
2018-10-19T05:48:20.306Z,73.33
2018-10-19T05:50:49.576Z,76.66
2018-10-19T05:53:21.719Z,73.47
2018-10-19T05:55:50.866Z,74.93
2018-10-19T05:58:19.958Z,74.15
2018-10-19T06:00:50.930Z,73.37
2018-10-19T06:03:20.565Z,75.14
2018-10-19T06:05:49.939Z,75.96
2018-10-19T06:08:19.001Z,74.59
2018-10-19T06:10:48.155Z,74.31
2018-10-19T06:13:17.252Z,74.47
2018-10-19T06:15:46.348Z,74.22
2018-10-19T06:18:15.420Z,74.53
2018-10-19T06:20:44.435Z,74.89
2018-10-19T06:23:13.654Z,74.96
2018-10-19T06:25:44.645Z,74.79
2018-10-19T06:28:13.648Z,74.95
2018-10-19T06:30:42.784Z,74.07
2018-10-19T06:33:11.991Z,74.36
2018-10-19T06:35:42.610Z,75.23
2018-10-19T06:38:11.723Z,76.05
2018-10-19T06:40:40.809Z,75.24
2018-10-19T06:43:09.924Z,75.77
2018-10-19T06:45:39.024Z,74.34
2018-10-19T06:48:08.266Z,75.38
2018-10-19T06:50:37.325Z,74.46
2018-10-19T06:53:06.607Z,75.02
2018-10-19T06:55:35.630Z,75.61
2018-10-19T06:58:11.185Z,75.50
2018-10-19T07:00:40.361Z,75.21
2018-10-19T07:03:09.832Z,74.48
2018-10-19T07:05:40.643Z,76.60
2018-10-19T07:08:09.984Z,75.77
2018-10-19T07:10:39.091Z,74.02
2018-10-19T07:13:08.528Z,74.65
2018-10-19T07:15:37.731Z,75.11
2018-10-19T07:18:06.891Z,74.67
2018-10-19T07:20:36.089Z,73.87
2018-10-19T07:23:05.270Z,75.10
2018-10-19T07:25:34.564Z,73.80
2018-10-19T07:28:03.701Z,74.92
2018-10-19T07:30:33.761Z,76.17
2018-10-19T07:33:03.017Z,74.71
2018-10-19T07:35:32.872Z,74.60
2018-10-19T07:38:02.059Z,74.42
2018-10-19T07:40:31.136Z,73.03
2018-10-19T07:43:00.301Z,76.51
2018-10-19T07:45:29.434Z,75.35
2018-10-19T07:47:58.799Z,73.46
2018-10-19T07:50:27.859Z,73.55
2018-10-19T07:52:57.113Z,74.99
2018-10-19T07:55:26.975Z,74.52
2018-10-19T07:57:56.162Z,74.94
2018-10-19T08:00:25.381Z,75.24
2018-10-19T08:02:54.497Z,74.83
2018-10-19T08:05:25.267Z,74.90
2018-10-19T08:07:54.604Z,75.00
2018-10-19T08:10:23.755Z,75.96
2018-10-19T08:12:52.932Z,75.90
2018-10-19T08:15:22.087Z,75.76
2018-10-19T08:17:51.323Z,76.35
2018-10-19T08:20:25.524Z,74.47
2018-10-19T08:22:54.835Z,75.11
2018-10-19T08:25:26.884Z,74.60
2018-10-19T08:27:56.983Z,75.11
2018-10-19T08:30:26.466Z,74.75
2018-10-19T08:32:55.632Z,74.74
2018-10-19T08:35:24.840Z,74.70
2018-10-19T08:37:54.491Z,75.59
2018-10-19T08:40:23.653Z,75.36
2018-10-19T08:42:52.785Z,75.38
2018-10-19T08:45:21.957Z,75.38
2018-10-19T08:47:51.189Z,75.41
2018-10-19T08:50:20.430Z,75.44
2018-10-19T08:52:49.735Z,75.14
2018-10-19T08:55:18.980Z,75.35
2018-10-19T08:57:48.177Z,77.28
2018-10-19T09:00:17.493Z,75.53
2018-10-19T09:02:46.570Z,75.13
2018-10-19T09:05:15.932Z,74.87
2018-10-19T09:07:44.979Z,74.90
2018-10-19T09:10:14.219Z,75.40
2018-10-19T09:12:44.357Z,75.29
2018-10-19T09:15:13.575Z,75.05
2018-10-19T09:17:42.728Z,75.51
2018-10-19T09:20:12.446Z,74.11
2018-10-19T09:22:41.593Z,74.29
2018-10-19T09:25:10.816Z,74.12
2018-10-19T09:27:40.056Z,74.14
2018-10-19T09:30:09.211Z,73.19
2018-10-19T09:32:38.378Z,73.72
2018-10-19T09:35:07.573Z,73.28
2018-10-19T09:37:36.833Z,73.43
2018-10-19T09:40:06.415Z,72.86
2018-10-19T09:42:35.551Z,72.13
2018-10-19T09:45:05.323Z,72.54
2018-10-19T09:47:34.492Z,71.15
2018-10-19T09:50:03.576Z,71.33
2018-10-19T09:52:32.978Z,70.83
2018-10-19T09:55:02.386Z,67.73
2018-10-19T09:57:31.470Z,70.18
2018-10-19T10:00:00.602Z,68.61
2018-10-19T10:02:29.755Z,67.43
2018-10-19T10:04:58.939Z,68.45
2018-10-19T10:07:28.097Z,66.85
2018-10-19T10:09:57.241Z,66.67
2018-10-19T10:12:26.327Z,64.60
2018-10-19T10:17:51.186Z,64.10
2018-10-19T10:20:20.297Z,66.16
2018-10-19T10:22:49.420Z,65.42
2018-10-19T10:25:18.511Z,63.08
2018-10-19T10:27:47.625Z,63.20
2018-10-19T10:30:16.857Z,64.63
2018-10-19T10:32:46.063Z,65.22
2018-10-19T10:35:15.198Z,64.30
2018-10-19T10:37:44.576Z,64.51
2018-10-19T10:40:13.842Z,63.30
2018-10-19T10:42:42.932Z,64.70
2018-10-19T10:45:12.148Z,64.12
2018-10-19T10:47:47.279Z,64.90
2018-10-19T10:50:16.448Z,63.53
2018-10-19T10:52:47.086Z,64.36
2018-10-19T10:55:16.298Z,63.54
2018-10-19T10:57:45.888Z,62.50
2018-10-19T11:00:15.065Z,63.81
2018-10-19T11:02:44.330Z,62.36
2018-10-19T11:05:13.489Z,63.55
2018-10-19T11:10:24.151Z,63.52
2018-10-19T11:12:53.434Z,63.29
2018-10-19T11:15:22.537Z,63.08
2018-10-19T11:17:51.784Z,60.79
2018-10-19T11:20:20.965Z,62.77
2018-10-19T11:22:50.177Z,61.78
2018-10-19T11:25:19.360Z,63.76
2018-10-19T11:27:49.457Z,62.67
2018-10-19T11:30:18.912Z,63.08
2018-10-19T11:32:48.117Z,63.23
2018-10-19T11:35:30.983Z,62.81
2018-10-19T11:38:07.749Z,63.48
2018-10-19T11:40:38.005Z,62.61
2018-10-19T11:43:07.328Z,61.00
2018-10-19T11:45:37.608Z,60.94
2018-10-19T11:48:07.830Z,61.25
2018-10-19T11:50:37.620Z,60.55
2018-10-19T11:53:06.917Z,59.23
2018-10-19T11:55:53.070Z,59.60
2018-10-19T11:58:41.498Z,58.47
2018-10-19T12:01:17.135Z,59.70
2018-10-19T12:03:46.404Z,58.20
2018-10-19T12:06:15.478Z,56.05
2018-10-19T12:08:45.904Z,57.96
2018-10-19T12:11:15.008Z,57.99
2018-10-19T12:13:44.131Z,57.16
2018-10-19T12:16:13.440Z,58.09
2018-10-19T12:18:42.644Z,56.66
2018-10-19T12:21:21.265Z,54.46
2018-10-19T12:23:51.178Z,55.61
2018-10-19T12:26:20.443Z,54.81
2018-10-19T12:28:50.357Z,53.63
2018-10-19T12:31:19.428Z,53.87
2018-10-19T12:33:48.560Z,54.59
2018-10-19T12:36:17.677Z,54.11
2018-10-19T12:38:46.774Z,50.77
2018-10-19T12:41:15.949Z,53.39
2018-10-19T12:43:44.987Z,52.73
2018-10-19T12:46:29.531Z,53.12
2018-10-19T12:49:00.681Z,51.59
2018-10-19T12:51:29.791Z,51.91
2018-10-19T12:53:59.089Z,49.06
2018-10-19T12:56:28.108Z,49.38
2018-10-19T12:58:57.339Z,49.93
2018-10-19T13:01:27.643Z,51.56
2018-10-19T13:03:56.813Z,51.16
2018-10-19T13:06:25.906Z,51.19
2018-10-19T13:08:55.067Z,50.45
2018-10-19T13:11:24.412Z,50.26
2018-10-19T13:13:53.697Z,47.04
2018-10-19T13:16:23.043Z,50.17
2018-10-19T13:18:55.090Z,48.51
2018-10-19T13:21:29.725Z,51.35
2018-10-19T13:24:00.604Z,51.17
2018-10-19T13:29:34.431Z,50.66
2018-10-19T13:32:04.170Z,50.74
2018-10-19T13:34:34.660Z,51.18
2018-10-19T13:37:04.242Z,50.35
2018-10-19T13:39:39.625Z,50.87
2018-10-19T13:42:12.737Z,50.76
2018-10-19T13:44:42.985Z,50.33
2018-10-19T13:47:12.274Z,49.51
2018-10-19T13:49:43.718Z,50.46
2018-10-19T13:55:45.267Z,49.12
2018-10-19T13:58:16.324Z,49.64
2018-10-19T14:00:48.749Z,47.19
2018-10-19T14:03:17.970Z,49.52
2018-10-19T14:05:47.205Z,49.17
2018-10-19T14:08:16.630Z,49.18
2018-10-19T14:10:45.746Z,47.82
2018-10-19T14:13:16.137Z,46.15
2018-10-19T14:15:45.921Z,48.86
2018-10-19T14:18:15.761Z,48.40
2018-10-19T14:20:45.512Z,48.80
2018-10-19T14:23:14.645Z,47.88
2018-10-19T14:25:43.939Z,49.08
2018-10-19T14:28:12.993Z,48.93
2018-10-19T14:30:42.171Z,48.02
2018-10-19T14:33:11.361Z,47.59
2018-10-19T14:35:40.399Z,48.21
2018-10-19T14:38:09.550Z,48.27
2018-10-19T14:40:57.453Z,48.48
2018-10-19T14:43:26.606Z,48.63
2018-10-19T14:45:55.704Z,48.01
2018-10-19T14:48:24.787Z,46.81
2018-10-19T14:50:59.014Z,46.37
2018-10-19T14:53:28.237Z,46.97
2018-10-19T14:55:57.294Z,46.91
2018-10-19T15:01:29.912Z,47.90
2018-10-19T15:04:02.319Z,46.86
2018-10-19T15:06:31.434Z,47.98
2018-10-19T15:09:00.828Z,48.22
2018-10-19T15:11:31.098Z,48.10
2018-10-19T15:14:00.181Z,48.82
2018-10-19T15:16:30.251Z,49.00
2018-10-19T15:18:59.951Z,47.33
2018-10-19T15:21:29.342Z,48.22
2018-10-19T15:24:08.077Z,47.47
2018-10-19T15:26:44.040Z,47.44
2018-10-19T15:29:17.310Z,48.36
2018-10-19T15:31:47.250Z,48.60
2018-10-19T15:34:16.453Z,48.64
2018-10-19T15:36:45.739Z,49.46
2018-10-19T15:39:17.405Z,49.36
2018-10-19T15:41:46.662Z,49.73
2018-10-19T15:44:15.899Z,50.22
2018-10-19T15:46:45.053Z,50.61
2018-10-19T15:49:17.118Z,50.63
2018-10-19T15:51:46.357Z,50.80
2018-10-19T15:54:15.659Z,50.21
2018-10-19T15:56:44.751Z,51.16
2018-10-19T15:59:13.872Z,51.06
2018-10-19T16:01:44.392Z,51.27
2018-10-19T16:04:14.705Z,50.99
2018-10-19T16:06:53.224Z,51.80
2018-10-19T16:09:23.944Z,50.91
2018-10-19T16:12:02.123Z,51.36
2018-10-19T16:14:33.387Z,51.43
2018-10-19T16:17:02.772Z,51.96
2018-10-19T16:20:04.930Z,52.60
2018-10-19T16:22:41.665Z,52.80
2018-10-19T16:25:20.298Z,53.04
2018-10-19T16:34:52.625Z,53.03
2018-10-19T16:37:22.957Z,53.28
2018-10-19T16:40:00.353Z,52.89
2018-10-19T16:42:34.425Z,54.19
2018-10-19T16:45:05.438Z,54.52
2018-10-19T16:47:39.450Z,54.91
2018-10-19T16:50:08.844Z,55.03
2018-10-19T16:52:39.770Z,54.05
2018-10-19T16:55:08.834Z,54.02
2018-10-19T16:57:38.401Z,54.47
2018-10-19T17:02:50.312Z,54.24
2018-10-19T17:05:19.734Z,55.07
2018-10-19T17:07:49.526Z,56.18
2018-10-19T17:10:19.835Z,54.84
2018-10-19T17:12:53.370Z,54.75
2018-10-19T17:15:30.459Z,54.81
2018-10-19T17:18:05.669Z,55.85
2018-10-19T17:20:55.744Z,55.31
2018-10-19T17:23:29.095Z,56.61
2018-10-19T17:25:59.883Z,56.03
2018-10-19T17:28:30.034Z,56.05
2018-10-19T17:31:00.309Z,56.31
2018-10-19T17:33:32.712Z,57.70
2018-10-19T17:36:02.502Z,58.23
2018-10-19T17:38:31.860Z,57.95
2018-10-19T17:41:12.961Z,57.35
2018-10-19T17:43:45.209Z,57.20
2018-10-19T17:46:49.704Z,58.33
2018-10-19T17:49:20.456Z,57.98
2018-10-19T17:51:53.981Z,58.07
2018-10-19T17:54:35.255Z,57.65
2018-10-19T17:57:23.180Z,58.78
2018-10-19T18:03:16.947Z,57.93
2018-10-19T18:11:24.457Z,59.92
2018-10-19T18:14:00.428Z,60.28
2018-10-19T18:16:37.001Z,58.64
2018-10-19T18:19:07.553Z,59.23
2018-10-19T18:22:13.443Z,60.13
2018-10-19T18:28:49.406Z,60.34
2018-10-19T18:31:40.372Z,59.36
2018-10-19T18:34:09.963Z,60.60
2018-10-19T18:36:42.438Z,60.04
2018-10-19T18:39:16.102Z,60.80
2018-10-19T18:42:13.948Z,59.79
2018-10-19T18:44:43.232Z,60.31
2018-10-19T18:47:12.727Z,60.71
2018-10-19T18:49:41.856Z,60.80
2018-10-19T18:52:11.881Z,60.52
2018-10-19T18:54:44.052Z,61.10
2018-10-19T18:57:13.547Z,60.91
2018-10-19T18:59:42.947Z,61.53
2018-10-19T19:02:20.947Z,61.14
2018-10-19T19:05:14.872Z,61.53
2018-10-19T19:07:47.739Z,61.72
2018-10-19T19:10:19.115Z,62.19
2018-10-19T19:12:48.579Z,62.10
2018-10-19T19:15:31.493Z,61.50
2018-10-19T19:18:02.573Z,63.19
2018-10-19T19:20:33.620Z,63.15
2018-10-19T19:23:03.284Z,62.65
2018-10-19T19:25:39.386Z,61.49
2018-10-19T19:28:09.452Z,62.25
2018-10-19T19:30:44.467Z,62.48
2018-10-19T19:33:19.344Z,62.01
2018-10-19T19:36:06.071Z,63.33
2018-10-19T19:41:56.029Z,62.60
2018-10-19T19:44:26.995Z,62.71
2018-10-19T19:47:01.729Z,63.31
2018-10-19T19:49:40.095Z,63.19
2018-10-19T19:55:03.116Z,62.44
2018-10-19T19:57:35.584Z,63.17
2018-10-19T20:00:07.984Z,64.11
2018-10-19T20:02:38.072Z,62.28
2018-10-19T20:05:08.305Z,63.99
2018-10-19T20:07:38.995Z,63.88
2018-10-19T20:10:11.385Z,62.86
2018-10-19T20:16:56.955Z,64.89
2018-10-19T20:32:52.275Z,64.98
2018-10-19T20:35:21.329Z,64.25
2018-10-19T20:37:50.396Z,65.67
2018-10-19T20:40:19.507Z,65.15
2018-10-19T20:42:49.463Z,65.65
2018-10-19T20:45:18.574Z,64.36
2018-10-19T20:47:47.627Z,64.18
2018-10-19T20:50:17.738Z,65.24
2018-10-19T20:52:46.894Z,65.05
2018-10-19T20:55:16.024Z,65.53
2018-10-19T20:57:45.044Z,65.07
2018-10-19T21:00:14.122Z,65.35
2018-10-19T21:02:43.237Z,65.78
2018-10-19T21:05:12.970Z,64.85
2018-10-19T21:07:42.022Z,65.40
2018-10-19T21:10:12.666Z,66.29
2018-10-19T21:12:41.753Z,65.56
2018-10-19T21:15:12.236Z,65.73
2018-10-19T21:17:41.768Z,65.54
2018-10-19T21:20:12.004Z,65.83
2018-10-19T21:22:41.025Z,66.33
2018-10-19T21:25:11.300Z,66.43
2018-10-19T21:27:40.358Z,66.11
2018-10-19T21:30:11.008Z,65.87
2018-10-19T21:32:40.053Z,65.83
2018-10-19T21:35:09.144Z,65.17
2018-10-19T21:37:38.244Z,65.63
2018-10-19T21:40:07.292Z,66.86
2018-10-19T21:42:36.364Z,66.08
2018-10-19T21:45:05.823Z,66.63
2018-10-19T21:47:34.860Z,66.04
2018-10-19T21:50:03.993Z,66.37
2018-10-19T21:52:32.994Z,66.74
2018-10-19T21:55:02.081Z,66.89
2018-10-19T21:57:31.140Z,66.29
2018-10-19T22:00:00.226Z,67.29
2018-10-19T22:02:29.300Z,66.72
2018-10-19T22:04:58.430Z,67.37
2018-10-19T22:07:27.454Z,67.01
2018-10-19T22:09:56.483Z,67.29
2018-10-19T22:12:25.536Z,68.98
2018-10-19T22:14:54.601Z,68.32
2018-10-19T22:17:23.655Z,67.46
2018-10-19T22:19:52.721Z,67.42
2018-10-19T22:22:21.823Z,67.86
2018-10-19T22:24:50.987Z,68.62
2018-10-19T22:27:20.051Z,67.98
2018-10-19T22:29:49.089Z,68.55
2018-10-19T22:32:18.134Z,67.43
2018-10-19T22:34:47.169Z,68.38
2018-10-19T22:37:16.323Z,68.45
2018-10-19T22:39:45.219Z,68.52
2018-10-19T22:42:14.248Z,68.87
2018-10-19T22:44:44.166Z,68.28
2018-10-19T22:47:13.394Z,67.79
2018-10-19T22:49:42.282Z,68.41
2018-10-19T22:52:11.294Z,67.30
2018-10-19T22:54:40.367Z,69.64
2018-10-19T22:57:09.856Z,68.60
2018-10-19T22:59:38.887Z,68.61
2018-10-19T23:02:07.915Z,69.60
2018-10-19T23:04:36.980Z,69.35
2018-10-19T23:07:06.398Z,69.20
2018-10-19T23:09:35.482Z,67.02
2018-10-19T23:12:04.450Z,67.61
2018-10-19T23:14:33.518Z,67.84
2018-10-19T23:17:02.644Z,69.40
2018-10-19T23:19:31.698Z,68.09
2018-10-19T23:22:00.737Z,68.16
2018-10-19T23:24:29.799Z,68.49
2018-10-19T23:26:58.830Z,69.72
2018-10-19T23:29:27.892Z,70.33
2018-10-19T23:31:56.918Z,70.99
2018-10-19T23:34:26.012Z,70.71
2018-10-19T23:36:55.296Z,69.25
2018-10-19T23:39:24.281Z,69.69
2018-10-19T23:41:53.307Z,70.35
2018-10-19T23:44:22.329Z,70.77
2018-10-19T23:46:51.386Z,70.17
2018-10-19T23:49:20.402Z,69.86
2018-10-19T23:51:49.431Z,69.79
2018-10-19T23:54:18.996Z,70.44
2018-10-19T23:56:48.052Z,69.75
2018-10-19T23:59:17.116Z,69.06
